Aérodrome :
LOGIN :

S'inscrire | Disclaimer

   EN    FR    IT 

 










Légende :    VFR   VFR Marginal   IFR   IFR Intensif   IFR Très Intensif
Visi : 
Plafond : 
>= 8 km
>= 3000ft
5 à 8 km
1000 à 3000 ft
1500m à 5 km
500 à 1000 ft
800 à 1500m
200 à 500 ft
< 800m
< 200 ft
Symboles :   Orages  Brouillard  Fortes neiges  Fortes précipitations  Vent > 20 kt
SIGMETs :   Divers  Orages  Givrage  Turbulence  Onde Orograph.  Cendres Volcan.







- Altitude de l'aérodrome : 277 ft
- Code IATA : JER
- Voir les cartes d'approche


EGJJ - Jersey

DERNIER METAR :
  • 221020Z 28004KT 240V330 CAVOK 18/08 Q1021

METARs EXPIRÉS :
  • 220950Z 28005KT 240V310 9999 VCFG NSC 17/08 Q1021
  • 220920Z 26003KT 200V310 9999 VCFG NSC 17/09 Q1021
  • 220850Z VRB02KT 9999 VCFG NSC 17/10 Q1021
  • 220820Z VRB02KT CAVOK 18/09 Q1021
  • 220750Z 18003KT 120V230 CAVOK 16/10 Q1021

TAF TAF EGJJ
Valide du 22 à 09h jusqu'au 22 à 18h UTC


220800Z 2209/2218 VRB04KT 9999 FEW044
ATIS : +44 1534 498 073
Pas de NOTAMs connus pour ce terrain.



MET'MAP, la Météo Aéronautique d'un coup d'oeil ! - Copyright ORBIFLY Décembre 2007 - Disclaimer

ORBIFLY MET'MAP TEAM :

Programmation & Développement : Alexandra Zaïnal
Conception & Développement : Baudouin d'Aumeries
Co-Programmation & Développement : Marc-Olivier Méhu
Soutien technique & logistique : Manuel Goepfert

Contact : metmap@orbifly.com




SOURCES & CREDITS :

   NOAA